British Robin — MGSH7 — position and weather

sailwx.info

Track history (hours):
 
Tides and Currents Weather Stations Pressure Air Temp Water Temp Dewpoint Dewpoint Depression Visibility Wind Speed Wind Dir Waves Ship Positions

British Robin

Last reported at 2017-Nov-19 09:51 UTC. Time now 2017-Nov-19 10:08 UTC.
Position N 47°12' W 006°17'.

Length 251.5 m; beam 43.9 m; draft 15 m.

Type: Tanker. MMSI: 232156000.

Date/timePositionNaut miles runAvg speedWind from/ knotsBaromVisibWave heightAir tempDewpointWater temp
2017-Nov-19 09:51N 47°12' W 006°17'2 1.3
2017-Nov-19 08:28N 47°14' W 006°17'2 1.1
2017-Nov-19 06:15N 47°16' W 006°18'1 0.9
2017-Nov-19 05:17N 47°16' W 006°19'1 0.9
2017-Nov-19 04:33N 47°16' W 006°20'0 0.9
2017-Nov-19 04:21N 47°16' W 006°21'1 0.6
2017-Nov-19 03:30N 47°16' W 006°21'0 0.6
2017-Nov-19 03:00N 47°16' W 006°22'1 0.4
2017-Nov-19 01:31N 47°15' W 006°22'0 0.3
2017-Nov-19 01:24N 47°15' W 006°22'0 0.6
2017-Nov-19 00:47N 47°15' W 006°21'0 0.7
2017-Nov-19 00:29N 47°15' W 006°21'0 0.9
2017-Nov-19 00:00N 47°15' W 006°20'1 1.2
2017-Nov-18 23:25N 47°15' W 006°19'1 1.3
2017-Nov-18 22:41N 47°16' W 006°18'1 1.4
2017-Nov-18 22:01N 47°17' W 006°17'0 1.4
2017-Nov-18 21:58N 47°17' W 006°17'1 1.5
2017-Nov-18 21:14N 47°18' W 006°16'0 1.7
2017-Nov-18 20:59N 47°18' W 006°16'4 1.3
2017-Nov-18 18:09N 47°22' W 006°16'0 0.8
2017-Nov-18 17:40N 47°22' W 006°17'1 0.8
2017-Nov-18 16:54N 47°23' W 006°17'0 0.6
2017-Nov-18 16:19N 47°23' W 006°18'0 0.5
2017-Nov-18 15:56N 47°23' W 006°18'0 0.5
2017-Nov-18 15:26N 47°23' W 006°18'0 0.3
2017-Nov-18 15:00N 47°23' W 006°18'0 0.8
2017-Nov-18 14:30N 47°23' W 006°18'2 4.7
2017-Nov-18 13:59N 47°25' W 006°20'3 5.1
2017-Nov-18 13:28N 47°28' W 006°22'3 4.7
2017-Nov-18 12:55N 47°30' W 006°23'2 4.6
2017-Nov-18 12:25N 47°32' W 006°25'4 9.6
2017-Nov-18 12:00N 47°36' W 006°24'3111.2 180 / 31028.710.8 14.0 9.112.5
2017-Nov-18 11:58N 47°34' W 006°26'3 6.1
2017-Nov-18 11:30N 47°37' W 006°27'9 7.7
2017-Nov-18 10:18N 47°46' W 006°29'1 2.2
2017-Nov-18 09:58N 47°46' W 006°30'0 0.4
2017-Nov-18 09:29N 47°46' W 006°30'0 0.6
2017-Nov-18 09:00N 47°47' W 006°29'1 0.8
2017-Nov-18 08:22N 47°47' W 006°29'1 1.0
2017-Nov-18 07:51N 47°48' W 006°29'0 1.1
2017-Nov-18 07:31N 47°48' W 006°29'1 1.1
2017-Nov-18 06:48N 47°49' W 006°29'1 1.2
2017-Nov-18 06:23N 47°49' W 006°30'1 1.1
2017-Nov-18 05:56N 47°50' W 006°30'1 1.2
2017-Nov-18 05:24N 47°50' W 006°31'1 1.4
2017-Nov-18 04:49N 47°50' W 006°32'1 2.4
2017-Nov-18 04:24N 47°50' W 006°34'2 4.0
2017-Nov-18 04:00N 47°51' W 006°36'610.0
2017-Nov-18 03:26N 47°51' W 006°44'3 6.0
2017-Nov-18 02:57N 47°53' W 006°48'3 5.3
2017-Nov-18 02:27N 47°55' W 006°51'3 4.9
2017-Nov-18 01:56N 47°56' W 006°53'2 4.9
2017-Nov-18 01:30N 47°58' W 006°55'3 4.8
2017-Nov-18 00:47N 48°01' W 006°58'2 4.4
2017-Nov-18 00:26N 48°02' W 006°60'2 4.6
2017-Nov-18 00:00N 48°04' W 007°01'3 4.7
2017-Nov-17 23:25N 48°06' W 007°03'2 3.0
2017-Nov-17 22:40N 48°09' W 007°03'1 1.9
2017-Nov-17 22:01N 48°10' W 007°02'1 2.2
2017-Nov-17 21:31N 48°11' W 007°01'2 2.2
2017-Nov-17 20:36N 48°12' W 006°60'1 1.8
2017-Nov-17 20:17N 48°13' W 006°59'2 1.8
2017-Nov-17 19:04N 48°15' W 006°58'1 1.7
2017-Nov-17 18:22N 48°16' W 006°58'1 1.5
2017-Nov-17 17:35N 48°17' W 006°59'0 1.5
2017-Nov-17 17:29N 48°18' W 006°59'2 1.3
2017-Nov-17 16:20N 48°19' W 006°59'31 3.8
2017-Nov-17 08:08N 48°50' W 007°11'1 1.5
2017-Nov-17 07:23N 48°51' W 007°11'1 1.5
2017-Nov-17 06:58N 48°51' W 007°11'1 1.6
2017-Nov-17 06:19N 48°52' W 007°11'1 1.9
2017-Nov-17 05:59N 48°53' W 007°12'1 2.1
2017-Nov-17 05:29N 48°54' W 007°13'1 2.1
2017-Nov-17 05:00N 48°55' W 007°13'30 2.5
2017-Nov-16 16:56N 49°10' W 006°34'2 1.5
2017-Nov-16 15:53N 49°10' W 006°37'1 1.5
2017-Nov-16 15:14N 49°09' W 006°38'1 1.6
2017-Nov-16 14:50N 49°09' W 006°39'1 1.7
2017-Nov-16 14:31N 49°09' W 006°40'1 1.8
2017-Nov-16 13:57N 49°08' W 006°41'1 1.9
2017-Nov-16 13:30N 49°07' W 006°42'1 1.8
2017-Nov-16 12:57N 49°07' W 006°43'1 1.6
2017-Nov-16 12:16N 49°06' W 006°44'621.4
2017-Nov-16 12:00N 49°00' W 006°42'516.5 320 / 21026.110.8 13.011.111.5
2017-Nov-16 11:40N 49°05' W 006°44'1 1.0
2017-Nov-16 10:39N 49°04' W 006°45'0 0.7
2017-Nov-16 10:20N 49°04' W 006°45'0 0.5
2017-Nov-16 09:59N 49°04' W 006°45'4 4.2
2017-Nov-16 09:00N 49°00' W 006°42'4 6.6 230 / 31026.010.8 12.510.611.7
2017-Nov-16 08:23N 49°04' W 006°44'0 0.2
2017-Nov-16 08:00N 49°04' W 006°44'0 0.3
2017-Nov-16 07:30N 49°04' W 006°44'0 0.3
2017-Nov-16 06:30N 49°04' W 006°45'4 8.4
2017-Nov-16 06:00N 49°00' W 006°42'5102.1 270 / 81022.310.8 13.0 9.111.5
2017-Nov-16 05:57N 49°04' W 006°46'1 1.6
2017-Nov-16 05:29N 49°04' W 006°47'1 1.9
2017-Nov-16 04:58N 49°04' W 006°48'1 2.0
2017-Nov-16 04:28N 49°05' W 006°50'1 2.2
2017-Nov-16 03:50N 49°05' W 006°52'2 2.4
2017-Nov-16 03:04N 49°04' W 006°55'0 2.3
2017-Nov-16 03:00N 49°04' W 006°55'2 2.5
2017-Nov-16 02:08N 49°03' W 006°58'2 2.0
2017-Nov-16 01:21N 49°02' W 006°60'1 1.9
2017-Nov-16 00:53N 49°01' W 007°01'1 1.8
2017-Nov-16 00:30N 49°01' W 007°01'1 1.4
2017-Nov-16 00:00N 49°00' W 007°02'0 0.8
2017-Nov-15 23:29N 48°60' W 007°02'1 1.1
2017-Nov-15 22:54N 48°60' W 007°03'1 1.2
2017-Nov-15 22:18N 48°59' W 007°04'0 1.1
2017-Nov-15 22:01N 48°59' W 007°05'0 0.9
2017-Nov-15 21:29N 48°59' W 007°05'0 0.7
2017-Nov-15 20:56N 48°59' W 007°06'0 0.3
2017-Nov-15 19:34N 48°59' W 007°06'0 0.4
2017-Nov-15 19:29N 48°59' W 007°06'1 0.5
2017-Nov-15 18:16N 48°59' W 007°07'0 0.3
2017-Nov-15 17:39N 48°60' W 007°07'0 0.6
2017-Nov-15 17:26N 48°60' W 007°07'0 0.8
2017-Nov-15 16:57N 49°00' W 007°06'1 1.9
2017-Nov-15 16:30N 49°01' W 007°05'5 6.2
2017-Nov-15 15:43N 49°03' W 006°59'612.8
2017-Nov-15 15:17N 49°06' W 006°52'310.5
2017-Nov-15 15:00N 49°08' W 006°48'711.9
2017-Nov-15 14:27N 49°11' W 006°39'611.7
2017-Nov-15 13:57N 49°13' W 006°31'611.7
2017-Nov-15 13:26N 49°17' W 006°23'711.8
2017-Nov-15 12:48N 49°20' W 006°13'511.7
2017-Nov-15 12:21N 49°22' W 006°06'821.7
2017-Nov-15 12:00N 49°24' W 005°54'211.1 240 / 91026.610.8 13.0 9.111.5
2017-Nov-15 11:51N 49°24' W 005°57'411.6
2017-Nov-15 11:29N 49°25' W 005°50'610.4
2017-Nov-15 10:56N 49°27' W 005°42'3313.1
2017-Nov-15 08:23N 49°51' W 005°05'514.2
2017-Nov-15 08:00N 49°55' W 005°01'713.4
2017-Nov-15 07:31N 50°01' W 004°56'612.4
2017-Nov-15 07:00N 50°06' W 005°02'2 1.2
2017-Nov-15 05:32N 50°08' W 005°03'0 0.1
2017-Nov-15 05:23N 50°08' W 005°03'0 0.1
2017-Nov-15 04:56N 50°08' W 005°03'0 0.0
2017-Nov-15 04:23N 50°08' W 005°03'0 0.0
2017-Nov-15 03:59N 50°08' W 005°03'0 0.0
2017-Nov-15 03:11N 50°08' W 005°03'0 0.1
2017-Nov-15 02:44N 50°08' W 005°03'0 0.0
2017-Nov-15 00:35N 50°08' W 005°03'3 4.4
2017-Nov-15 00:00N 50°06' W 005°00'3 7.3 230 / 141025.110.8 13.510.611.7
2017-Nov-14 23:38N 50°08' W 005°03'0 0.1
2017-Nov-14 23:20N 50°08' W 005°03'0 0.0
2017-Nov-14 22:50N 50°08' W 005°03'0 0.1
2017-Nov-14 22:29N 50°08' W 005°03'0 0.0
2017-Nov-14 21:59N 50°08' W 005°03'0 0.0
2017-Nov-14 21:29N 50°08' W 005°03'0 0.0
2017-Nov-14 20:59N 50°08' W 005°03'0 0.0
2017-Nov-14 20:05N 50°08' W 005°03'0 0.0
2017-Nov-14 19:59N 50°08' W 005°03'0 0.0
2017-Nov-14 18:56N 50°08' W 005°03'0 0.0
2017-Nov-14 18:17N 50°08' W 005°03'0 0.0
2017-Nov-14 17:53N 50°08' W 005°03'0 0.0
2017-Nov-14 17:23N 50°08' W 005°03'0 0.0
2017-Nov-14 16:56N 50°08' W 005°03'0 0.0
2017-Nov-14 16:29N 50°08' W 005°03'0 0.0
2017-Nov-14 14:23N 50°08' W 005°03'0 0.0
2017-Nov-14 13:47N 50°08' W 005°03'0 0.1
2017-Nov-14 13:26N 50°08' W 005°03'0 0.4
2017-Nov-14 13:01N 50°08' W 005°03'2 4.9
2017-Nov-14 12:31N 50°06' W 005°00'3 6.0
2017-Nov-14 12:00N 50°03' W 004°58'3 6.6
2017-Nov-14 11:30N 50°01' W 004°55'510.1
2017-Nov-14 11:00N 49°58' W 004°48'713.3
2017-Nov-14 10:31N 49°57' W 004°38'713.5
2017-Nov-14 10:00N 49°56' W 004°27'713.3
2017-Nov-14 09:30N 49°55' W 004°17'1 2.1
2017-Nov-14 08:59N 49°55' W 004°16'0 0.8
2017-Nov-14 08:30N 49°55' W 004°16'0 0.7
2017-Nov-14 07:58N 49°55' W 004°16'1 0.8
2017-Nov-14 07:14N 49°56' W 004°17'0 0.9
2017-Nov-14 06:50N 49°56' W 004°17'0 1.0
2017-Nov-14 06:27N 49°56' W 004°17'0 0.8
2017-Nov-14 06:00N 49°57' W 004°17'1 2.9
2017-Nov-14 05:31N 49°57' W 004°15'5 9.4
2017-Nov-14 05:00N 49°57' W 004°08'510.0
2017-Nov-14 04:31N 49°57' W 004°00'5 9.7
2017-Nov-14 04:01N 49°57' W 003°53'5 9.4
2017-Nov-14 03:30N 49°57' W 003°45'5 9.4
2017-Nov-14 03:01N 49°57' W 003°38'5 9.4
2017-Nov-14 02:31N 49°57' W 003°31'5 9.6
2017-Nov-14 02:00N 49°56' W 003°23'5 9.8
2017-Nov-14 01:31N 49°56' W 003°16'510.2
2017-Nov-14 01:00N 49°58' W 003°08'510.6
2017-Nov-14 00:30N 49°59' W 003°00'611.1
2017-Nov-14 00:01N 50°00' W 002°52'611.7
2017-Nov-13 23:30N 50°02' W 002°43'612.2
2017-Nov-13 23:00N 50°04' W 002°34'68 6.2
2017-Nov-13 12:00N 50°36' W 001°00'19 1.9 360 / 151028.6 5.4 6.5 1.510.8
2017-Nov-13 02:01N 50°50' W 001°20'0 0.0
2017-Nov-13 01:31N 50°50' W 001°20'0 0.0
2017-Nov-13 01:01N 50°50' W 001°20'0 0.0
2017-Nov-13 00:31N 50°50' W 001°20'0 0.0
2017-Nov-13 00:01N 50°50' W 001°20'0 0.0
2017-Nov-12 23:31N 50°50' W 001°20'0 0.0
2017-Nov-12 23:01N 50°50' W 001°20'0 0.0
2017-Nov-12 22:31N 50°50' W 001°20'0 0.0
2017-Nov-12 22:00N 50°50' W 001°20'0 0.0
2017-Nov-12 21:31N 50°50' W 001°20'0 0.0
2017-Nov-12 21:01N 50°50' W 001°20'0 0.0
2017-Nov-12 20:31N 50°50' W 001°20'0 0.0
2017-Nov-12 20:00N 50°50' W 001°20'0 0.0
2017-Nov-12 19:31N 50°50' W 001°20'0 0.0
2017-Nov-12 19:01N 50°50' W 001°20'0 0.0
2017-Nov-12 18:31N 50°50' W 001°20'0 0.0
2017-Nov-12 18:01N 50°50' W 001°20'0 0.0
2017-Nov-12 17:30N 50°50' W 001°20'0 0.0
2017-Nov-12 17:01N 50°50' W 001°20'0 0.0
2017-Nov-12 16:30N 50°50' W 001°20'0 0.0
2017-Nov-12 16:01N 50°50' W 001°20'0 0.0
2017-Nov-12 15:31N 50°50' W 001°20'0 0.0
2017-Nov-12 15:01N 50°50' W 001°20'0 0.0
2017-Nov-12 14:31N 50°50' W 001°20'0 0.0
2017-Nov-12 14:00N 50°50' W 001°20'0 0.0
2017-Nov-12 13:31N 50°50' W 001°20'0 0.0
2017-Nov-12 13:00N 50°50' W 001°20'0 0.0
2017-Nov-12 12:31N 50°50' W 001°20'0 0.0
2017-Nov-12 12:01N 50°50' W 001°20'0 0.0
2017-Nov-12 11:31N 50°50' W 001°20'0 0.0
2017-Nov-12 11:01N 50°50' W 001°20'0 0.0
2017-Nov-12 10:31N 50°50' W 001°20'0 0.0
2017-Nov-12 10:01N 50°50' W 001°20'0 0.0
2017-Nov-12 09:31N 50°50' W 001°20'0 0.0
2017-Nov-12 09:01N 50°50' W 001°20'0 0.0
2017-Nov-12 08:31N 50°50' W 001°20'0 0.0
2017-Nov-12 08:01N 50°50' W 001°20'0 0.0
2017-Nov-12 07:31N 50°50' W 001°20'0 0.0
2017-Nov-12 07:01N 50°50' W 001°20'0 0.0
2017-Nov-12 06:31N 50°50' W 001°20'0 0.0
2017-Nov-12 06:01N 50°50' W 001°20'0 0.0
2017-Nov-12 05:31N 50°50' W 001°20'0 0.0
2017-Nov-12 05:01N 50°50' W 001°20'0 0.0
2017-Nov-12 04:31N 50°50' W 001°20'0 0.0
2017-Nov-12 04:01N 50°50' W 001°20'0 0.0
2017-Nov-12 03:31N 50°50' W 001°20'0 0.0
2017-Nov-12 03:01N 50°50' W 001°20'0 0.0
2017-Nov-12 02:31N 50°50' W 001°20'0 0.0
2017-Nov-12 02:01N 50°50' W 001°20'0 0.0
2017-Nov-12 01:31N 50°50' W 001°20'0 0.0
2017-Nov-12 01:01N 50°50' W 001°20'0 0.0
2017-Nov-12 00:30N 50°50' W 001°20'0 0.0
2017-Nov-12 00:01N 50°50' W 001°20'0 0.0
2017-Nov-11 23:31N 50°50' W 001°20'0 0.0
2017-Nov-11 23:00N 50°50' W 001°20'0 0.0
2017-Nov-11 22:31N 50°50' W 001°20'0 0.0
2017-Nov-11 22:01N 50°50' W 001°20'0 0.0
2017-Nov-11 21:30N 50°50' W 001°20'0 0.0
2017-Nov-11 21:00N 50°50' W 001°20'0 0.0
2017-Nov-11 20:31N 50°50' W 001°20'0 0.0
2017-Nov-11 20:01N 50°50' W 001°20'0 0.0
2017-Nov-11 19:31N 50°50' W 001°20'0 0.0
2017-Nov-11 19:00N 50°50' W 001°20'0 0.0
2017-Nov-11 18:31N 50°50' W 001°20'0 0.0
2017-Nov-11 18:01N 50°50' W 001°20'0 0.0
2017-Nov-11 17:31N 50°50' W 001°20'0 0.0
2017-Nov-11 17:01N 50°50' W 001°20'0 0.0
2017-Nov-11 16:31N 50°50' W 001°20'0 0.4
2017-Nov-11 16:01N 50°50' W 001°19'1 2.8
2017-Nov-11 15:31N 50°49' W 001°18'3 5.6
2017-Nov-11 15:01N 50°46' W 001°19'5 9.3
2017-Nov-11 14:31N 50°46' W 001°11'5 9.6
2017-Nov-11 14:01N 50°44' W 001°04'5 9.6
2017-Nov-11 13:31N 50°42' W 000°57'5 9.2
2017-Nov-11 13:00N 50°38' W 000°58'3 6.1
2017-Nov-11 12:31N 50°36' W 001°02'2 2.7
2017-Nov-11 11:57N 50°37' W 001°04'0 0.1
2017-Nov-11 11:30N 50°37' W 001°04'0 0.0
2017-Nov-11 10:54N 50°37' W 001°04'0 0.0
2017-Nov-11 10:30N 50°37' W 001°04'3 5.8
2017-Nov-11 10:00N 50°36' W 001°00'363.2 270 / 301009.7 5.4 13.512.611.7
2017-Nov-11 09:57N 50°37' W 001°04'0 0.4
2017-Nov-11 09:30N 50°37' W 001°04'0 0.2
2017-Nov-11 09:00N 50°37' W 001°05'0 0.1
2017-Nov-11 08:30N 50°37' W 001°05'0 0.0
2017-Nov-11 08:00N 50°37' W 001°05'31034.7
2017-Nov-11 08:00N 50°36' W 001°00'3 6.4 280 / 351010.1 2.2 13.511.612.0
2017-Nov-11 07:30N 50°37' W 001°05'0 0.0
2017-Nov-11 07:00N 50°37' W 001°05'0 0.0
2017-Nov-11 06:30N 50°37' W 001°05'0 0.2
2017-Nov-11 06:00N 50°37' W 001°05'0 0.4
2017-Nov-11 05:30N 50°37' W 001°04'0 0.3
2017-Nov-11 05:00N 50°37' W 001°04'0 0.1
2017-Nov-11 04:24N 50°37' W 001°04'0 0.0
2017-Nov-11 04:00N 50°37' W 001°04'0 0.0
2017-Nov-11 03:30N 50°37' W 001°04'0 0.0
2017-Nov-11 03:00N 50°37' W 001°04'0 0.0
2017-Nov-11 02:30N 50°37' W 001°04'0 0.0
2017-Nov-11 02:00N 50°37' W 001°04'0 0.0
2017-Nov-11 01:29N 50°37' W 001°04'0 0.0
2017-Nov-11 00:59N 50°37' W 001°04'0 0.0
2017-Nov-11 00:30N 50°37' W 001°04'3 5.9
2017-Nov-11 00:00N 50°36' W 001°00'33538.3 270 / 191020.810.8 11.0 9.011.5
2017-Nov-10 23:59N 50°37' W 001°04'0 0.0
2017-Nov-10 23:29N 50°37' W 001°04'0 0.0
2017-Nov-10 22:59N 50°37' W 001°04'0 0.0
2017-Nov-10 22:29N 50°37' W 001°04'0 0.0
2017-Nov-10 21:59N 50°37' W 001°04'0 0.5
2017-Nov-10 21:29N 50°37' W 001°04'0 0.2
2017-Nov-10 20:59N 50°37' W 001°05'0 0.0
2017-Nov-10 20:29N 50°37' W 001°05'3 6.4
2017-Nov-10 20:00N 50°36' W 001°00'31141.9 280 / 181022.8 5.4 10.5 3.711.6
2017-Nov-10 19:59N 50°37' W 001°05'0 0.0
2017-Nov-10 19:29N 50°37' W 001°05'0 0.0
2017-Nov-10 18:59N 50°37' W 001°05'0 0.0
2017-Nov-10 18:29N 50°37' W 001°05'0 0.0
2017-Nov-10 17:59N 50°37' W 001°05'0 0.0
2017-Nov-10 17:29N 50°37' W 001°05'3 6.4
2017-Nov-10 17:00N 50°36' W 001°00'3764.0 300 / 271021.8 5.4 11.5 6.211.8
2017-Nov-10 16:59N 50°37' W 001°05'0 0.1
2017-Nov-10 16:29N 50°37' W 001°05'0 0.4
2017-Nov-10 15:59N 50°37' W 001°04'0 0.3
2017-Nov-10 15:29N 50°37' W 001°04'0 0.1
2017-Nov-10 14:59N 50°37' W 001°04'0 0.2
2017-Nov-10 14:29N 50°37' W 001°04'0 0.1
2017-Nov-10 13:59N 50°37' W 001°04'0 0.0
2017-Nov-10 13:29N 50°37' W 001°04'0 0.0
2017-Nov-10 12:59N 50°37' W 001°04'0 0.0
2017-Nov-10 12:26N 50°37' W 001°04'3 6.7
2017-Nov-10 12:00N 50°36' W 001°00'3444.5 320 / 241020.610.8 14.0 4.212.0
2017-Nov-10 11:59N 50°37' W 001°04'0 0.0
2017-Nov-10 11:29N 50°37' W 001°04'0 0.0
2017-Nov-10 10:59N 50°37' W 001°04'0 0.0
2017-Nov-10 10:29N 50°37' W 001°04'0 0.1
2017-Nov-10 09:59N 50°37' W 001°04'0 0.0
2017-Nov-10 09:29N 50°37' W 001°04'0 0.2
2017-Nov-10 08:56N 50°37' W 001°04'0 0.5
2017-Nov-10 08:29N 50°37' W 001°05'0 0.1
2017-Nov-10 07:59N 50°37' W 001°05'0 0.0
2017-Nov-10 07:29N 50°37' W 001°05'0 0.0
2017-Nov-10 06:59N 50°37' W 001°05'0 0.0
2017-Nov-10 06:29N 50°37' W 001°05'0 0.0
2017-Nov-10 05:59N 50°37' W 001°05'0 0.0
2017-Nov-10 05:29N 50°37' W 001°05'0 0.0
2017-Nov-10 04:59N 50°37' W 001°05'0 0.0
2017-Nov-10 04:29N 50°37' W 001°05'0 0.0
2017-Nov-10 03:59N 50°37' W 001°05'0 0.5
2017-Nov-10 03:29N 50°37' W 001°04'0 0.3
2017-Nov-10 02:59N 50°37' W 001°04'0 0.1
2017-Nov-10 02:29N 50°37' W 001°04'0 0.0
2017-Nov-10 01:59N 50°37' W 001°04'0 0.0
2017-Nov-10 01:29N 50°37' W 001°04'0 0.0
2017-Nov-10 00:59N 50°37' W 001°04'0 0.0
2017-Nov-10 00:29N 50°37' W 001°04'0 0.0
2017-Nov-09 23:59N 50°37' W 001°04'0 0.0
2017-Nov-09 23:29N 50°37' W 001°04'0 0.0
2017-Nov-09 22:59N 50°37' W 001°04'0 0.0
2017-Nov-09 22:29N 50°37' W 001°04'0 0.0
2017-Nov-09 21:59N 50°37' W 001°04'0 0.0
2017-Nov-09 21:29N 50°37' W 001°04'0 0.2
2017-Nov-09 20:59N 50°37' W 001°04'0 0.5
2017-Nov-09 20:29N 50°37' W 001°05'0 0.1
2017-Nov-09 19:59N 50°37' W 001°05'0 0.0
2017-Nov-09 19:29N 50°37' W 001°05'0 0.0
2017-Nov-09 18:59N 50°37' W 001°05'0 0.0
2017-Nov-09 18:29N 50°37' W 001°05'0 0.0
2017-Nov-09 17:59N 50°37' W 001°05'0 0.0
2017-Nov-09 17:29N 50°37' W 001°05'0 0.0
2017-Nov-09 16:59N 50°37' W 001°05'0 0.0
2017-Nov-09 16:29N 50°37' W 001°05'0 0.0
2017-Nov-09 15:59N 50°37' W 001°05'0 0.0
2017-Nov-09 15:29N 50°37' W 001°05'0 0.1
2017-Nov-09 14:58N 50°37' W 001°05'0 0.5
2017-Nov-09 14:28N 50°37' W 001°04'0 0.2
2017-Nov-09 13:58N 50°37' W 001°04'0 0.1
2017-Nov-09 13:28N 50°37' W 001°04'0 0.0
2017-Nov-09 12:58N 50°37' W 001°04'0 0.0
2017-Nov-09 12:28N 50°37' W 001°04'3 6.3
2017-Nov-09 12:00N 50°36' W 001°00'3164.1 290 / 101026.310.8 13.510.612.0
2017-Nov-09 11:58N 50°37' W 001°04'0 0.0
2017-Nov-09 11:28N 50°37' W 001°04'0 0.0
2017-Nov-09 10:52N 50°37' W 001°04'0 0.0
2017-Nov-09 10:28N 50°37' W 001°04'0 0.0
2017-Nov-09 09:58N 50°37' W 001°04'  
Track history (hours):
 
Tides and Currents Weather Stations Pressure Air Temp Water Temp Dewpoint Dewpoint Depression Visibility Wind Speed Wind Dir Waves Ship Positions

British Robin

Last reported at 2017-Nov-19 09:51 UTC. Time now 2017-Nov-19 10:08 UTC.
Position N 47°12' W 006°17'.

Length 251.5 m; beam 43.9 m; draft 15 m.

Type: Tanker. MMSI: 232156000.

Date/timePositionNaut miles runAvg speedWind from/ knotsBaromVisibWave heightAir tempDewpointWater temp
2017-Nov-19 09:51N 47°12' W 006°17'2 1.3
2017-Nov-19 08:28N 47°14' W 006°17'2 1.1
2017-Nov-19 06:15N 47°16' W 006°18'1 0.9
2017-Nov-19 05:17N 47°16' W 006°19'1 0.9
2017-Nov-19 04:33N 47°16' W 006°20'0 0.9
2017-Nov-19 04:21N 47°16' W 006°21'1 0.6
2017-Nov-19 03:30N 47°16' W 006°21'0 0.6
2017-Nov-19 03:00N 47°16' W 006°22'1 0.4
2017-Nov-19 01:31N 47°15' W 006°22'0 0.3
2017-Nov-19 01:24N 47°15' W 006°22'0 0.6
2017-Nov-19 00:47N 47°15' W 006°21'0 0.7
2017-Nov-19 00:29N 47°15' W 006°21'0 0.9
2017-Nov-19 00:00N 47°15' W 006°20'1 1.2
2017-Nov-18 23:25N 47°15' W 006°19'1 1.3
2017-Nov-18 22:41N 47°16' W 006°18'1 1.4
2017-Nov-18 22:01N 47°17' W 006°17'0 1.4
2017-Nov-18 21:58N 47°17' W 006°17'1 1.5
2017-Nov-18 21:14N 47°18' W 006°16'0 1.7
2017-Nov-18 20:59N 47°18' W 006°16'4 1.3
2017-Nov-18 18:09N 47°22' W 006°16'0 0.8
2017-Nov-18 17:40N 47°22' W 006°17'1 0.8
2017-Nov-18 16:54N 47°23' W 006°17'0 0.6
2017-Nov-18 16:19N 47°23' W 006°18'0 0.5
2017-Nov-18 15:56N 47°23' W 006°18'0 0.5
2017-Nov-18 15:26N 47°23' W 006°18'0 0.3
2017-Nov-18 15:00N 47°23' W 006°18'0 0.8
2017-Nov-18 14:30N 47°23' W 006°18'2 4.7
2017-Nov-18 13:59N 47°25' W 006°20'3 5.1
2017-Nov-18 13:28N 47°28' W 006°22'3 4.7
2017-Nov-18 12:55N 47°30' W 006°23'2 4.6
2017-Nov-18 12:25N 47°32' W 006°25'4 9.6
2017-Nov-18 12:00N 47°36' W 006°24'3111.2 180 / 31028.710.8 14.0 9.112.5
2017-Nov-18 11:58N 47°34' W 006°26'3 6.1
2017-Nov-18 11:30N 47°37' W 006°27'9 7.7
2017-Nov-18 10:18N 47°46' W 006°29'1 2.2
2017-Nov-18 09:58N 47°46' W 006°30'0 0.4
2017-Nov-18 09:29N 47°46' W 006°30'0 0.6
2017-Nov-18 09:00N 47°47' W 006°29'1 0.8
2017-Nov-18 08:22N 47°47' W 006°29'1 1.0
2017-Nov-18 07:51N 47°48' W 006°29'0 1.1
2017-Nov-18 07:31N 47°48' W 006°29'1 1.1
2017-Nov-18 06:48N 47°49' W 006°29'1 1.2
2017-Nov-18 06:23N 47°49' W 006°30'1 1.1
2017-Nov-18 05:56N 47°50' W 006°30'1 1.2
2017-Nov-18 05:24N 47°50' W 006°31'1 1.4
2017-Nov-18 04:49N 47°50' W 006°32'1 2.4
2017-Nov-18 04:24N 47°50' W 006°34'2 4.0
2017-Nov-18 04:00N 47°51' W 006°36'610.0
2017-Nov-18 03:26N 47°51' W 006°44'3 6.0
2017-Nov-18 02:57N 47°53' W 006°48'3 5.3
2017-Nov-18 02:27N 47°55' W 006°51'3 4.9
2017-Nov-18 01:56N 47°56' W 006°53'2 4.9
2017-Nov-18 01:30N 47°58' W 006°55'3 4.8
2017-Nov-18 00:47N 48°01' W 006°58'2 4.4
2017-Nov-18 00:26N 48°02' W 006°60'2 4.6
2017-Nov-18 00:00N 48°04' W 007°01'3 4.7
2017-Nov-17 23:25N 48°06' W 007°03'2 3.0
2017-Nov-17 22:40N 48°09' W 007°03'1 1.9
2017-Nov-17 22:01N 48°10' W 007°02'1 2.2
2017-Nov-17 21:31N 48°11' W 007°01'2 2.2
2017-Nov-17 20:36N 48°12' W 006°60'1 1.8
2017-Nov-17 20:17N 48°13' W 006°59'2 1.8
2017-Nov-17 19:04N 48°15' W 006°58'1 1.7
2017-Nov-17 18:22N 48°16' W 006°58'1 1.5
2017-Nov-17 17:35N 48°17' W 006°59'0 1.5
2017-Nov-17 17:29N 48°18' W 006°59'2 1.3
2017-Nov-17 16:20N 48°19' W 006°59'31 3.8
2017-Nov-17 08:08N 48°50' W 007°11'1 1.5
2017-Nov-17 07:23N 48°51' W 007°11'1 1.5
2017-Nov-17 06:58N 48°51' W 007°11'1 1.6
2017-Nov-17 06:19N 48°52' W 007°11'1 1.9
2017-Nov-17 05:59N 48°53' W 007°12'1 2.1
2017-Nov-17 05:29N 48°54' W 007°13'1 2.1
2017-Nov-17 05:00N 48°55' W 007°13'30 2.5
2017-Nov-16 16:56N 49°10' W 006°34'2 1.5
2017-Nov-16 15:53N 49°10' W 006°37'1 1.5
2017-Nov-16 15:14N 49°09' W 006°38'1 1.6
2017-Nov-16 14:50N 49°09' W 006°39'1 1.7
2017-Nov-16 14:31N 49°09' W 006°40'1 1.8
2017-Nov-16 13:57N 49°08' W 006°41'1 1.9
2017-Nov-16 13:30N 49°07' W 006°42'1 1.8
2017-Nov-16 12:57N 49°07' W 006°43'1 1.6
2017-Nov-16 12:16N 49°06' W 006°44'621.4
2017-Nov-16 12:00N 49°00' W 006°42'516.5 320 / 21026.110.8 13.011.111.5
2017-Nov-16 11:40N 49°05' W 006°44'1 1.0
2017-Nov-16 10:39N 49°04' W 006°45'0 0.7
2017-Nov-16 10:20N 49°04' W 006°45'0 0.5
2017-Nov-16 09:59N 49°04' W 006°45'4 4.2
2017-Nov-16 09:00N 49°00' W 006°42'4 6.6 230 / 31026.010.8 12.510.611.7
2017-Nov-16 08:23N 49°04' W 006°44'0 0.2
2017-Nov-16 08:00N 49°04' W 006°44'0 0.3
2017-Nov-16 07:30N 49°04' W 006°44'0 0.3
2017-Nov-16 06:30N 49°04' W 006°45'4 8.4
2017-Nov-16 06:00N 49°00' W 006°42'5102.1 270 / 81022.310.8 13.0 9.111.5
2017-Nov-16 05:57N 49°04' W 006°46'1 1.6
2017-Nov-16 05:29N 49°04' W 006°47'1 1.9
2017-Nov-16 04:58N 49°04' W 006°48'1 2.0
2017-Nov-16 04:28N 49°05' W 006°50'1 2.2
2017-Nov-16 03:50N 49°05' W 006°52'2 2.4
2017-Nov-16 03:04N 49°04' W 006°55'0 2.3
2017-Nov-16 03:00N 49°04' W 006°55'2 2.5
2017-Nov-16 02:08N 49°03' W 006°58'2 2.0
2017-Nov-16 01:21N 49°02' W 006°60'1 1.9
2017-Nov-16 00:53N 49°01' W 007°01'1 1.8
2017-Nov-16 00:30N 49°01' W 007°01'1 1.4
2017-Nov-16 00:00N 49°00' W 007°02'0 0.8
2017-Nov-15 23:29N 48°60' W 007°02'1 1.1
2017-Nov-15 22:54N 48°60' W 007°03'1 1.2
2017-Nov-15 22:18N 48°59' W 007°04'0 1.1
2017-Nov-15 22:01N 48°59' W 007°05'0 0.9
2017-Nov-15 21:29N 48°59' W 007°05'0 0.7
2017-Nov-15 20:56N 48°59' W 007°06'0 0.3
2017-Nov-15 19:34N 48°59' W 007°06'0 0.4
2017-Nov-15 19:29N 48°59' W 007°06'1 0.5
2017-Nov-15 18:16N 48°59' W 007°07'0 0.3
2017-Nov-15 17:39N 48°60' W 007°07'0 0.6
2017-Nov-15 17:26N 48°60' W 007°07'0 0.8
2017-Nov-15 16:57N 49°00' W 007°06'1 1.9
2017-Nov-15 16:30N 49°01' W 007°05'5 6.2
2017-Nov-15 15:43N 49°03' W 006°59'612.8
2017-Nov-15 15:17N 49°06' W 006°52'310.5
2017-Nov-15 15:00N 49°08' W 006°48'711.9
2017-Nov-15 14:27N 49°11' W 006°39'611.7
2017-Nov-15 13:57N 49°13' W 006°31'611.7
2017-Nov-15 13:26N 49°17' W 006°23'711.8
2017-Nov-15 12:48N 49°20' W 006°13'511.7
2017-Nov-15 12:21N 49°22' W 006°06'821.7
2017-Nov-15 12:00N 49°24' W 005°54'211.1 240 / 91026.610.8 13.0 9.111.5
2017-Nov-15 11:51N 49°24' W 005°57'411.6
2017-Nov-15 11:29N 49°25' W 005°50'610.4
2017-Nov-15 10:56N 49°27' W 005°42'3313.1
2017-Nov-15 08:23N 49°51' W 005°05'514.2
2017-Nov-15 08:00N 49°55' W 005°01'713.4
2017-Nov-15 07:31N 50°01' W 004°56'612.4
2017-Nov-15 07:00N 50°06' W 005°02'2 1.2
2017-Nov-15 05:32N 50°08' W 005°03'0 0.1
2017-Nov-15 05:23N 50°08' W 005°03'0 0.1
2017-Nov-15 04:56N 50°08' W 005°03'0 0.0
2017-Nov-15 04:23N 50°08' W 005°03'0 0.0
2017-Nov-15 03:59N 50°08' W 005°03'0 0.0
2017-Nov-15 03:11N 50°08' W 005°03'0 0.1
2017-Nov-15 02:44N 50°08' W 005°03'0 0.0
2017-Nov-15 00:35N 50°08' W 005°03'3 4.4
2017-Nov-15 00:00N 50°06' W 005°00'3 7.3 230 / 141025.110.8 13.510.611.7
2017-Nov-14 23:38N 50°08' W 005°03'0 0.1
2017-Nov-14 23:20N 50°08' W 005°03'0 0.0
2017-Nov-14 22:50N 50°08' W 005°03'0 0.1
2017-Nov-14 22:29N 50°08' W 005°03'0 0.0
2017-Nov-14 21:59N 50°08' W 005°03'0 0.0
2017-Nov-14 21:29N 50°08' W 005°03'0 0.0
2017-Nov-14 20:59N 50°08' W 005°03'0 0.0
2017-Nov-14 20:05N 50°08' W 005°03'0 0.0
2017-Nov-14 19:59N 50°08' W 005°03'0 0.0
2017-Nov-14 18:56N 50°08' W 005°03'0 0.0
2017-Nov-14 18:17N 50°08' W 005°03'0 0.0
2017-Nov-14 17:53N 50°08' W 005°03'0 0.0
2017-Nov-14 17:23N 50°08' W 005°03'0 0.0
2017-Nov-14 16:56N 50°08' W 005°03'0 0.0
2017-Nov-14 16:29N 50°08' W 005°03'0 0.0
2017-Nov-14 14:23N 50°08' W 005°03'0 0.0
2017-Nov-14 13:47N 50°08' W 005°03'0 0.1
2017-Nov-14 13:26N 50°08' W 005°03'0 0.4
2017-Nov-14 13:01N 50°08' W 005°03'2 4.9
2017-Nov-14 12:31N 50°06' W 005°00'3 6.0
2017-Nov-14 12:00N 50°03' W 004°58'3 6.6
2017-Nov-14 11:30N 50°01' W 004°55'510.1
2017-Nov-14 11:00N 49°58' W 004°48'713.3
2017-Nov-14 10:31N 49°57' W 004°38'713.5
2017-Nov-14 10:00N 49°56' W 004°27'713.3
2017-Nov-14 09:30N 49°55' W 004°17'1 2.1
2017-Nov-14 08:59N 49°55' W 004°16'0 0.8
2017-Nov-14 08:30N 49°55' W 004°16'0 0.7
2017-Nov-14 07:58N 49°55' W 004°16'1 0.8
2017-Nov-14 07:14N 49°56' W 004°17'0 0.9
2017-Nov-14 06:50N 49°56' W 004°17'0 1.0
2017-Nov-14 06:27N 49°56' W 004°17'0 0.8
2017-Nov-14 06:00N 49°57' W 004°17'1 2.9
2017-Nov-14 05:31N 49°57' W 004°15'5 9.4
2017-Nov-14 05:00N 49°57' W 004°08'510.0
2017-Nov-14 04:31N 49°57' W 004°00'5 9.7
2017-Nov-14 04:01N 49°57' W 003°53'5 9.4
2017-Nov-14 03:30N 49°57' W 003°45'5 9.4
2017-Nov-14 03:01N 49°57' W 003°38'5 9.4
2017-Nov-14 02:31N 49°57' W 003°31'5 9.6
2017-Nov-14 02:00N 49°56' W 003°23'5 9.8
2017-Nov-14 01:31N 49°56' W 003°16'510.2
2017-Nov-14 01:00N 49°58' W 003°08'510.6
2017-Nov-14 00:30N 49°59' W 003°00'611.1
2017-Nov-14 00:01N 50°00' W 002°52'611.7
2017-Nov-13 23:30N 50°02' W 002°43'612.2
2017-Nov-13 23:00N 50°04' W 002°34'68 6.2
2017-Nov-13 12:00N 50°36' W 001°00'19 1.9 360 / 151028.6 5.4 6.5 1.510.8
2017-Nov-13 02:01N 50°50' W 001°20'0 0.0
2017-Nov-13 01:31N 50°50' W 001°20'0 0.0
2017-Nov-13 01:01N 50°50' W 001°20'0 0.0
2017-Nov-13 00:31N 50°50' W 001°20'0 0.0
2017-Nov-13 00:01N 50°50' W 001°20'0 0.0
2017-Nov-12 23:31N 50°50' W 001°20'0 0.0
2017-Nov-12 23:01N 50°50' W 001°20'0 0.0
2017-Nov-12 22:31N 50°50' W 001°20'0 0.0
2017-Nov-12 22:00N 50°50' W 001°20'0 0.0
2017-Nov-12 21:31N 50°50' W 001°20'0 0.0
2017-Nov-12 21:01N 50°50' W 001°20'0 0.0
2017-Nov-12 20:31N 50°50' W 001°20'0 0.0
2017-Nov-12 20:00N 50°50' W 001°20'0 0.0
2017-Nov-12 19:31N 50°50' W 001°20'0 0.0
2017-Nov-12 19:01N 50°50' W 001°20'0 0.0
2017-Nov-12 18:31N 50°50' W 001°20'0 0.0
2017-Nov-12 18:01N 50°50' W 001°20'0 0.0
2017-Nov-12 17:30N 50°50' W 001°20'0 0.0
2017-Nov-12 17:01N 50°50' W 001°20'0 0.0
2017-Nov-12 16:30N 50°50' W 001°20'0 0.0
2017-Nov-12 16:01N 50°50' W 001°20'0 0.0
2017-Nov-12 15:31N 50°50' W 001°20'0 0.0
2017-Nov-12 15:01N 50°50' W 001°20'0 0.0
2017-Nov-12 14:31N 50°50' W 001°20'0 0.0
2017-Nov-12 14:00N 50°50' W 001°20'0 0.0
2017-Nov-12 13:31N 50°50' W 001°20'0 0.0
2017-Nov-12 13:00N 50°50' W 001°20'0 0.0
2017-Nov-12 12:31N 50°50' W 001°20'0 0.0
2017-Nov-12 12:01N 50°50' W 001°20'0 0.0
2017-Nov-12 11:31N 50°50' W 001°20'0 0.0
2017-Nov-12 11:01N 50°50' W 001°20'0 0.0
2017-Nov-12 10:31N 50°50' W 001°20'0 0.0
2017-Nov-12 10:01N 50°50' W 001°20'0 0.0
2017-Nov-12 09:31N 50°50' W 001°20'0 0.0
2017-Nov-12 09:01N 50°50' W 001°20'0 0.0
2017-Nov-12 08:31N 50°50' W 001°20'0 0.0
2017-Nov-12 08:01N 50°50' W 001°20'0 0.0
2017-Nov-12 07:31N 50°50' W 001°20'0 0.0
2017-Nov-12 07:01N 50°50' W 001°20'0 0.0
2017-Nov-12 06:31N 50°50' W 001°20'0 0.0
2017-Nov-12 06:01N 50°50' W 001°20'0 0.0
2017-Nov-12 05:31N 50°50' W 001°20'0 0.0
2017-Nov-12 05:01N 50°50' W 001°20'0 0.0
2017-Nov-12 04:31N 50°50' W 001°20'0 0.0
2017-Nov-12 04:01N 50°50' W 001°20'0 0.0
2017-Nov-12 03:31N 50°50' W 001°20'0 0.0
2017-Nov-12 03:01N 50°50' W 001°20'0 0.0
2017-Nov-12 02:31N 50°50' W 001°20'0 0.0
2017-Nov-12 02:01N 50°50' W 001°20'0 0.0
2017-Nov-12 01:31N 50°50' W 001°20'0 0.0
2017-Nov-12 01:01N 50°50' W 001°20'0 0.0
2017-Nov-12 00:30N 50°50' W 001°20'0 0.0
2017-Nov-12 00:01N 50°50' W 001°20'0 0.0
2017-Nov-11 23:31N 50°50' W 001°20'0 0.0
2017-Nov-11 23:00N 50°50' W 001°20'0 0.0
2017-Nov-11 22:31N 50°50' W 001°20'0 0.0
2017-Nov-11 22:01N 50°50' W 001°20'0 0.0
2017-Nov-11 21:30N 50°50' W 001°20'0 0.0
2017-Nov-11 21:00N 50°50' W 001°20'0 0.0
2017-Nov-11 20:31N 50°50' W 001°20'0 0.0
2017-Nov-11 20:01N 50°50' W 001°20'0 0.0
2017-Nov-11 19:31N 50°50' W 001°20'0 0.0
2017-Nov-11 19:00N 50°50' W 001°20'0 0.0
2017-Nov-11 18:31N 50°50' W 001°20'0 0.0
2017-Nov-11 18:01N 50°50' W 001°20'0 0.0
2017-Nov-11 17:31N 50°50' W 001°20'0 0.0
2017-Nov-11 17:01N 50°50' W 001°20'0 0.0
2017-Nov-11 16:31N 50°50' W 001°20'0 0.4
2017-Nov-11 16:01N 50°50' W 001°19'1 2.8
2017-Nov-11 15:31N 50°49' W 001°18'3 5.6
2017-Nov-11 15:01N 50°46' W 001°19'5 9.3
2017-Nov-11 14:31N 50°46' W 001°11'5 9.6
2017-Nov-11 14:01N 50°44' W 001°04'5 9.6
2017-Nov-11 13:31N 50°42' W 000°57'5 9.2
2017-Nov-11 13:00N 50°38' W 000°58'3 6.1
2017-Nov-11 12:31N 50°36' W 001°02'2 2.7
2017-Nov-11 11:57N 50°37' W 001°04'0 0.1
2017-Nov-11 11:30N 50°37' W 001°04'0 0.0
2017-Nov-11 10:54N 50°37' W 001°04'0 0.0
2017-Nov-11 10:30N 50°37' W 001°04'3 5.8
2017-Nov-11 10:00N 50°36' W 001°00'363.2 270 / 301009.7 5.4 13.512.611.7
2017-Nov-11 09:57N 50°37' W 001°04'0 0.4
2017-Nov-11 09:30N 50°37' W 001°04'0 0.2
2017-Nov-11 09:00N 50°37' W 001°05'0 0.1
2017-Nov-11 08:30N 50°37' W 001°05'0 0.0
2017-Nov-11 08:00N 50°37' W 001°05'31034.7
2017-Nov-11 08:00N 50°36' W 001°00'3 6.4 280 / 351010.1 2.2 13.511.612.0
2017-Nov-11 07:30N 50°37' W 001°05'0 0.0
2017-Nov-11 07:00N 50°37' W 001°05'0 0.0
2017-Nov-11 06:30N 50°37' W 001°05'0 0.2
2017-Nov-11 06:00N 50°37' W 001°05'0 0.4
2017-Nov-11 05:30N 50°37' W 001°04'0 0.3
2017-Nov-11 05:00N 50°37' W 001°04'0 0.1
2017-Nov-11 04:24N 50°37' W 001°04'0 0.0
2017-Nov-11 04:00N 50°37' W 001°04'0 0.0
2017-Nov-11 03:30N 50°37' W 001°04'0 0.0
2017-Nov-11 03:00N 50°37' W 001°04'0 0.0
2017-Nov-11 02:30N 50°37' W 001°04'0 0.0
2017-Nov-11 02:00N 50°37' W 001°04'0 0.0
2017-Nov-11 01:29N 50°37' W 001°04'0 0.0
2017-Nov-11 00:59N 50°37' W 001°04'0 0.0
2017-Nov-11 00:30N 50°37' W 001°04'3 5.9
2017-Nov-11 00:00N 50°36' W 001°00'33538.3 270 / 191020.810.8 11.0 9.011.5
2017-Nov-10 23:59N 50°37' W 001°04'0 0.0
2017-Nov-10 23:29N 50°37' W 001°04'0 0.0
2017-Nov-10 22:59N 50°37' W 001°04'0 0.0
2017-Nov-10 22:29N 50°37' W 001°04'0 0.0
2017-Nov-10 21:59N 50°37' W 001°04'0 0.5
2017-Nov-10 21:29N 50°37' W 001°04'0 0.2
2017-Nov-10 20:59N 50°37' W 001°05'0 0.0
2017-Nov-10 20:29N 50°37' W 001°05'3 6.4
2017-Nov-10 20:00N 50°36' W 001°00'31141.9 280 / 181022.8 5.4 10.5 3.711.6
2017-Nov-10 19:59N 50°37' W 001°05'0 0.0
2017-Nov-10 19:29N 50°37' W 001°05'0 0.0
2017-Nov-10 18:59N 50°37' W 001°05'0 0.0
2017-Nov-10 18:29N 50°37' W 001°05'0 0.0
2017-Nov-10 17:59N 50°37' W 001°05'0 0.0
2017-Nov-10 17:29N 50°37' W 001°05'3 6.4
2017-Nov-10 17:00N 50°36' W 001°00'3764.0 300 / 271021.8 5.4 11.5 6.211.8
2017-Nov-10 16:59N 50°37' W 001°05'0 0.1
2017-Nov-10 16:29N 50°37' W 001°05'0 0.4
2017-Nov-10 15:59N 50°37' W 001°04'0 0.3
2017-Nov-10 15:29N 50°37' W 001°04'0 0.1
2017-Nov-10 14:59N 50°37' W 001°04'0 0.2
2017-Nov-10 14:29N 50°37' W 001°04'0 0.1
2017-Nov-10 13:59N 50°37' W 001°04'0 0.0
2017-Nov-10 13:29N 50°37' W 001°04'0 0.0
2017-Nov-10 12:59N 50°37' W 001°04'0 0.0
2017-Nov-10 12:26N 50°37' W 001°04'3 6.7
2017-Nov-10 12:00N 50°36' W 001°00'3444.5 320 / 241020.610.8 14.0 4.212.0
2017-Nov-10 11:59N 50°37' W 001°04'0 0.0
2017-Nov-10 11:29N 50°37' W 001°04'0 0.0
2017-Nov-10 10:59N 50°37' W 001°04'0 0.0
2017-Nov-10 10:29N 50°37' W 001°04'0 0.1
2017-Nov-10 09:59N 50°37' W 001°04'0 0.0
2017-Nov-10 09:29N 50°37' W 001°04'0 0.2
2017-Nov-10 08:56N 50°37' W 001°04'0 0.5
2017-Nov-10 08:29N 50°37' W 001°05'0 0.1
2017-Nov-10 07:59N 50°37' W 001°05'0 0.0
2017-Nov-10 07:29N 50°37' W 001°05'0 0.0
2017-Nov-10 06:59N 50°37' W 001°05'0 0.0
2017-Nov-10 06:29N 50°37' W 001°05'0 0.0
2017-Nov-10 05:59N 50°37' W 001°05'0 0.0
2017-Nov-10 05:29N 50°37' W 001°05'0 0.0
2017-Nov-10 04:59N 50°37' W 001°05'0 0.0
2017-Nov-10 04:29N 50°37' W 001°05'0 0.0
2017-Nov-10 03:59N 50°37' W 001°05'0 0.5
2017-Nov-10 03:29N 50°37' W 001°04'0 0.3
2017-Nov-10 02:59N 50°37' W 001°04'0 0.1
2017-Nov-10 02:29N 50°37' W 001°04'0 0.0
2017-Nov-10 01:59N 50°37' W 001°04'0 0.0
2017-Nov-10 01:29N 50°37' W 001°04'0 0.0
2017-Nov-10 00:59N 50°37' W 001°04'0 0.0
2017-Nov-10 00:29N 50°37' W 001°04'0 0.0
2017-Nov-09 23:59N 50°37' W 001°04'0 0.0
2017-Nov-09 23:29N 50°37' W 001°04'0 0.0
2017-Nov-09 22:59N 50°37' W 001°04'0 0.0
2017-Nov-09 22:29N 50°37' W 001°04'0 0.0
2017-Nov-09 21:59N 50°37' W 001°04'0 0.0
2017-Nov-09 21:29N 50°37' W 001°04'0 0.2
2017-Nov-09 20:59N 50°37' W 001°04'0 0.5
2017-Nov-09 20:29N 50°37' W 001°05'0 0.1
2017-Nov-09 19:59N 50°37' W 001°05'0 0.0
2017-Nov-09 19:29N 50°37' W 001°05'0 0.0
2017-Nov-09 18:59N 50°37' W 001°05'0 0.0
2017-Nov-09 18:29N 50°37' W 001°05'0 0.0
2017-Nov-09 17:59N 50°37' W 001°05'0 0.0
2017-Nov-09 17:29N 50°37' W 001°05'0 0.0
2017-Nov-09 16:59N 50°37' W 001°05'0 0.0
2017-Nov-09 16:29N 50°37' W 001°05'0 0.0
2017-Nov-09 15:59N 50°37' W 001°05'0 0.0
2017-Nov-09 15:29N 50°37' W 001°05'0 0.1
2017-Nov-09 14:58N 50°37' W 001°05'0 0.5
2017-Nov-09 14:28N 50°37' W 001°04'0 0.2
2017-Nov-09 13:58N 50°37' W 001°04'0 0.1
2017-Nov-09 13:28N 50°37' W 001°04'0 0.0
2017-Nov-09 12:58N 50°37' W 001°04'0 0.0
2017-Nov-09 12:28N 50°37' W 001°04'3 6.3
2017-Nov-09 12:00N 50°36' W 001°00'3164.1 290 / 101026.310.8 13.510.612.0
2017-Nov-09 11:58N 50°37' W 001°04'0 0.0
2017-Nov-09 11:28N 50°37' W 001°04'0 0.0
2017-Nov-09 10:52N 50°37' W 001°04'0 0.0
2017-Nov-09 10:28N 50°37' W 001°04'0 0.0
2017-Nov-09 09:58N 50°37' W 001°04'  

Dump ship's entire track history